Flight Track Log - Related Links

Times and Time Zones

All times are in EDT time to prevent confusion due to time zone crossing. See the UAL3740 flight status page for this flight to view local times or setup timezone preferences in your user account.

Time Position Orientation Groundspeed Altitude Reporting Facility
EDT Latitude Longitude Course Direction KTS MPH feet Rate Location/Type
Thu 10:11:31 AM 41.7581 -71.4189 North 181 208 1,400  Level Boston Center
Thu 10:12:13 AM 41.8042 -71.4431 339° North 297 342 3,000 2,529 Climbing Boston Center
Thu 10:13:13 AM 41.8361 -71.5233 298° West 239 275 5,700 2,842 Climbing Boston Center
Thu 10:14:26 AM 41.8722 -71.6289 295° West 239 275 9,300 2,373 Climbing Boston Center
Thu 10:15:27 AM 41.9106 -71.7203 299° West 262 302 11,000 1,866 Climbing Boston Center
Thu 10:16:25 AM 41.9653 -71.8175 307° West 299 344 13,000 2,017 Climbing Boston Center
Thu 10:17:26 AM 42.0136 -71.8981 309° West 325 374 15,000 2,033 Climbing Boston Center
Thu 10:18:26 AM 42.0578 -72.0206 296° West 338 389 17,100 1,835 Climbing Boston Center
Thu 10:19:27 AM 42.0792 -72.1603 282° West 345 397 18,700 1,686 Climbing Boston Center
Thu 10:20:27 AM 42.0981 -72.2919 281° West 357 411 20,500 1,627 Climbing Boston Center
Thu 10:21:25 AM 42.1192 -72.4261 282° West 364 419 21,900 1,513 Climbing Boston Center
Thu 10:22:26 AM 42.1397 -72.5661 281° West 376 433 23,500 1,082 Climbing Boston Center
Thu 10:23:27 AM 42.1542 -72.6950 279° West 381 438 24,100 843 Climbing Boston Center
Thu 10:24:27 AM 42.1017 -72.8261 242° Southwest 374 430 25,200 966 Climbing Boston Center
Thu 10:25:25 AM 42.0261 -72.9514 231° Southwest 374 430 26,000 504 Climbing Boston Center
Thu 10:26:26 AM 41.9569 -73.0683 232° Southwest 408 470 26,200 934 Climbing Boston Center
Thu 10:27:27 AM 41.8853 -73.1903 232° Southwest 419 482 27,900 908 Climbing Boston Center
Thu 10:28:25 AM 41.8283 -73.2842 231° Southwest 419 482 28,000 51 Climbing Boston Center
Thu 10:29:25 AM 41.7394 -73.4361 232° Southwest 424 488 28,000  Level Boston Center
Thu 10:30:25 AM 41.6653 -73.5600 231° Southwest 429 494 28,000  Level Boston Center
Thu 10:32:36 AM 41.4928 -73.8261 229° Southwest 420 483 28,000  Level New York Center
Thu 10:33:33 AM 41.3967 -73.9183 216° Southwest 426 490 28,000 -51 Level New York Center
Thu 10:34:34 AM 41.3144 -74.0306 226° Southwest 426 490 27,900  Descending New York Center
Thu 10:35:34 AM 41.2319 -74.1478 227° Southwest 432 497 28,000 50 Climbing New York Center
Thu 10:36:35 AM 41.1542 -74.2486 224° Southwest 432 497 28,000  Level New York Center
Thu 10:37:35 AM 41.0694 -74.3628 225° Southwest 438 504 28,000  Level New York Center
Thu 10:38:35 AM 40.9867 -74.4792 227° Southwest 438 504 28,000  Level New York Center
Thu 10:39:36 AM 40.8969 -74.6117 228° Southwest 443 510 28,000  Level New York Center
Thu 10:40:36 AM 40.8342 -74.7506 239° Southwest 443 510 28,000  Level New York Center
Thu 10:41:36 AM 40.7733 -74.8867 239° Southwest 443 510 28,000 -550 Level New York Center
Thu 10:42:36 AM 40.7100 -75.0225 238° Southwest 443 510 26,900 -1,333 Descending New York Center
Thu 10:43:33 AM 40.6467 -75.1608 239° Southwest 437 503 25,400 -1,525 Descending New York Center
Thu 10:44:34 AM 40.5875 -75.2939 240° Southwest 437 503 23,900 -1,488 Descending New York Center
Thu 10:45:34 AM 40.5283 -75.4211 239° Southwest 432 497 22,400 -1,488 Descending New York Center
Thu 10:46:35 AM 40.4736 -75.5400 239° Southwest 408 470 20,900 -1,200 Descending New York Center
Thu 10:47:34 AM 40.4208 -75.6564 239° Southwest 392 451 20,000 -454 Descending New York Center
Thu 10:48:34 AM 40.3639 -75.7750 238° Southwest 387 445 20,000  Level New York Center
Thu 10:49:35 AM 40.3083 -75.8989 240° Southwest 387 445 20,000  Level New York Center
Thu 10:50:35 AM 40.2514 -76.0144 237° Southwest 387 445 20,000 -248 Level New York Center
Thu 10:51:36 AM 40.1958 -76.1350 239° Southwest 387 445 19,500 -950 Descending New York Center
Thu 10:52:35 AM 40.1383 -76.2503 237° Southwest 380 437 18,100 -857 Descending New York Center
Thu 10:54:24 AM 40.0500 -76.4667 242° Southwest 364 419 17,100 -568 Descending Potomac TRACON
Thu 10:55:24 AM 39.9833 -76.5667 229° Southwest 370 426 16,500 -1,000 Descending Potomac TRACON
Thu 10:56:24 AM 39.9500 -76.6833 250° West 369 425 15,100 -700 Descending Potomac TRACON
Thu 10:57:24 AM 39.8833 -76.8000 233° Southwest 359 413 15,100 -52 Level Potomac TRACON
Thu 10:58:19 AM 39.8500 -76.8833 243° Southwest 362 417 15,000  Descending Potomac TRACON
Thu 10:59:19 AM 39.7833 -77.0000 233° Southwest 356 410 15,100 -1,100 Climbing Potomac TRACON
Thu 11:00:19 AM 39.7333 -77.1167 241° Southwest 355 409 12,800 -2,500 Descending Potomac TRACON
Thu 11:01:19 AM 39.6833 -77.2167 237° Southwest 316 364 10,100 -1,850 Descending Potomac TRACON
Thu 11:02:19 AM 39.6500 -77.2833 237° Southwest 254 292 9,100 -1,211 Descending Potomac TRACON
Thu 11:03:13 AM 39.5833 -77.3000 191° South 253 291 7,800 -1,158 Descending Potomac TRACON
Thu 11:04:13 AM 39.5167 -77.3000 180° South 246 283 6,900 -1,105 Descending Potomac TRACON
Thu 11:05:07 AM 39.4667 -77.3167 194° South 238 274 5,700 -1,158 Descending Potomac TRACON
Thu 11:06:07 AM 39.4167 -77.3667 218° Southwest 197 227 4,700 -850 Descending Potomac TRACON
Thu 11:07:07 AM 39.3833 -77.4167 229° Southwest 193 222 4,000 -300 Descending Potomac TRACON
Thu 11:08:07 AM 39.3333 -77.4333 194° South 163 188 4,100 50 Climbing Potomac TRACON
Thu 11:09:07 AM 39.2833 -77.4333 180° South 163 188 4,100 -250 Level Potomac TRACON
Thu 11:10:07 AM 39.2500 -77.4333 180° South 170 196 3,600 -574 Descending Potomac TRACON
Thu 11:11:02 AM 39.2000 -77.4333 180° South 171 197 3,000 -261 Descending Potomac TRACON
Thu 11:12:02 AM 39.1667 -77.4333 180° South 142 163 3,100 50 Climbing Potomac TRACON
Thu 11:13:02 AM 39.1167 -77.4333 180° South 143 165 3,100 -100 Level Potomac TRACON
Thu 11:14:02 AM 39.0833 -77.4333 180° South 147 169 2,900 -500 Descending Potomac TRACON
Thu 11:15:02 AM 39.0333 -77.4333 180° South 144 166 2,100 -800 Descending Potomac TRACON
Thu 11:16:02 AM 39.0000 -77.4333 180° South 133 153 1,300 -750 Descending Potomac TRACON
Thu 11:17:02 AM 38.9667 -77.4333 180° South 131 151 600 -700 Descending Potomac TRACON

Login

Don't have an account? Register now (free) for customized features, flight alerts, and more!